Time;durP1;ratioP1;P1;durP2;ratioP2;P2;SDS_P1;SDS_P2;PMS_P1;PMS_P2;Temp;Humidity;BMP_temperature;BMP_pressure;BME280_temperature;BME280_humidity;BME280_pressure;Samples;Min_cycle;Max_cycle;Signal;HPM_P1;HPM_P2
2022/03/11 00:00:37;;;;;;;2.60;1.42;;;5.70;19.70;;;;;;5055418;28;20161;-51
2022/03/11 00:03:03;;;;;;;6.13;2.67;;;5.70;20.00;;;;;;5053789;28;20226;-51
2022/03/11 00:05:29;;;;;;;4.87;2.90;;;5.70;20.00;;;;;;5055058;28;20169;-50
2022/03/11 00:07:55;;;;;;;3.10;2.30;;;5.70;19.90;;;;;;5055215;28;20161;-50
2022/03/11 00:10:22;;;;;;;6.38;2.97;;;5.70;20.50;;;;;;5055480;28;20645;-51
2022/03/11 00:12:48;;;;;;;3.65;2.22;;;5.60;19.80;;;;;;5054896;28;20245;-51
2022/03/11 00:15:14;;;;;;;4.57;2.55;;;5.60;19.90;;;;;;5055087;28;20200;-51
2022/03/11 00:17:40;;;;;;;4.18;2.28;;;5.70;19.90;;;;;;5054811;28;20179;-51
2022/03/11 00:20:07;;;;;;;3.43;2.63;;;5.70;19.80;;;;;;5054738;28;20181;-50
2022/03/11 00:22:34;;;;;;;5.97;2.20;;;5.70;20.00;;;;;;5054931;28;20420;-51
2022/03/11 00:25:00;;;;;;;3.67;1.85;;;5.70;19.90;;;;;;5053413;28;20263;-50
2022/03/11 00:27:25;;;;;;;4.40;1.73;;;5.70;19.90;;;;;;5054900;28;20255;-51
2022/03/11 00:29:51;;;;;;;3.57;2.33;;;5.60;19.80;;;;;;5054603;28;20181;-51
2022/03/11 00:32:16;;;;;;;3.73;1.93;;;5.50;19.90;;;;;;5086790;28;20645;-51
2022/03/11 00:34:42;;;;;;;2.80;2.00;;;5.50;19.90;;;;;;5054923;28;20649;-51
2022/03/11 00:37:08;;;;;;;5.03;2.27;;;5.50;19.90;;;;;;5054697;28;20161;-50
2022/03/11 00:39:33;;;;;;;3.93;1.83;;;5.40;19.90;;;;;;5053162;28;20177;-51
2022/03/11 00:41:59;;;;;;;3.30;1.43;;;5.40;20.00;;;;;;5054559;28;20161;-50
2022/03/11 00:44:25;;;;;;;6.20;2.60;;;5.50;19.90;;;;;;5054560;28;20173;-51
2022/03/11 00:46:50;;;;;;;2.60;2.00;;;5.40;19.80;;;;;;5054272;28;20196;-50
2022/03/11 00:49:16;;;;;;;3.20;1.40;;;5.40;19.90;;;;;;5052980;28;20173;-51
2022/03/11 00:51:42;;;;;;;6.53;2.50;;;5.40;19.80;;;;;;5054169;28;20169;-50
2022/03/11 00:54:07;;;;;;;3.40;1.93;;;5.40;19.90;;;;;;5086347;28;20218;-51
2022/03/11 00:56:33;;;;;;;8.37;3.27;;;5.20;19.70;;;;;;5054373;28;20641;-51
2022/03/11 00:58:59;;;;;;;7.93;3.07;;;5.20;20.00;;;;;;5054281;28;20208;-51
2022/03/11 01:01:24;;;;;;;3.30;1.77;;;5.20;20.00;;;;;;5054254;28;20173;-51
2022/03/11 01:03:50;;;;;;;5.27;2.00;;;5.30;19.90;;;;;;5054233;28;20176;-51
2022/03/11 01:06:17;;;;;;;10.30;3.05;;;5.20;19.90;;;;;;5054208;28;20176;-51
2022/03/11 01:08:42;;;;;;;3.35;2.03;;;5.20;19.80;;;;;;5051819;28;20252;-51
2022/03/11 01:11:11;;;;;;;6.70;2.70;;;5.20;20.00;;;;;;5053849;28;20292;-50
2022/03/11 01:13:38;;;;;;;3.05;2.10;;;5.10;20.00;;;;;;5053668;28;20205;-50
2022/03/11 01:16:04;;;;;;;3.35;1.67;;;5.00;19.80;;;;;;5053638;28;20204;-51
2022/03/11 01:18:30;;;;;;;3.05;1.50;;;5.10;19.90;;;;;;5054251;28;20176;-51
2022/03/11 01:20:56;;;;;;;4.40;2.60;;;4.90;20.00;;;;;;5053963;28;20173;-51
2022/03/11 01:23:22;;;;;;;5.93;3.10;;;4.90;20.00;;;;;;5053905;28;20169;-51
2022/03/11 01:25:48;;;;;;;2.75;2.35;;;4.90;19.90;;;;;;5052391;28;20173;-51
2022/03/11 01:28:13;;;;;;;5.50;3.03;;;4.80;20.00;;;;;;5053875;28;20215;-51
2022/03/11 01:30:40;;;;;;;9.80;3.63;;;4.90;20.00;;;;;;5054159;28;20408;-51
2022/03/11 01:33:06;;;;;;;2.85;1.63;;;4.90;19.80;;;;;;5053771;28;20161;-50
2022/03/11 01:35:32;;;;;;;2.33;1.60;;;4.90;19.80;;;;;;5053984;28;20200;-51
2022/03/11 01:37:58;;;;;;;4.70;4.00;;;4.80;19.70;;;;;;5053068;28;20427;-51
2022/03/11 01:40:24;;;;;;;5.37;1.90;;;4.90;19.90;;;;;;5053722;28;20223;-50
2022/03/11 01:42:50;;;;;;;8.18;4.10;;;4.90;20.30;;;;;;5053688;28;20568;-51
2022/03/11 01:45:16;;;;;;;5.40;2.33;;;4.90;19.70;;;;;;5053393;28;20170;-50
2022/03/11 01:47:42;;;;;;;2.57;1.73;;;4.80;19.40;;;;;;5053704;28;20222;-51
2022/03/11 01:50:08;;;;;;;3.37;2.40;;;4.80;19.70;;;;;;5053319;28;20434;-51
2022/03/11 01:52:34;;;;;;;4.97;3.22;;;4.80;19.60;;;;;;5053886;28;20884;-51
2022/03/11 01:55:00;;;;;;;4.10;2.65;;;4.80;19.60;;;;;;5051965;28;20204;-51
2022/03/11 01:57:26;;;;;;;4.47;3.47;;;4.80;19.60;;;;;;5053553;28;20215;-50
2022/03/11 01:59:51;;;;;;;2.00;1.50;;;4.80;19.50;;;;;;5053539;28;20248;-51
2022/03/11 02:02:17;;;;;;;3.00;2.13;;;4.80;19.30;;;;;;5053492;28;20621;-50
2022/03/11 02:04:43;;;;;;;2.37;1.80;;;4.80;19.40;;;;;;5053255;28;20525;-51
2022/03/11 02:07:10;;;;;;;3.93;1.80;;;4.70;19.40;;;;;;5053470;28;20888;-51
2022/03/11 02:09:36;;;;;;;4.47;2.67;;;4.70;19.30;;;;;;5053470;28;20412;-51
2022/03/11 02:12:03;;;;;;;4.68;2.42;;;4.60;19.20;;;;;;5053684;28;20170;-51
2022/03/11 02:14:28;;;;;;;2.55;1.90;;;4.70;19.40;;;;;;5085173;28;20628;-50
2022/03/11 02:16:54;;;;;;;2.60;1.57;;;4.70;19.10;;;;;;5053076;28;20177;-51
2022/03/11 02:19:20;;;;;;;3.30;1.97;;;5.40;19.30;;;;;;5052450;28;20180;-51
2022/03/11 02:21:48;;;;;;;5.73;3.20;;;4.60;19.30;;;;;;5055784;28;20170;-51
2022/03/11 02:24:14;;;;;;;7.65;3.58;;;4.60;19.20;;;;;;5057276;28;20622;-50
2022/03/11 02:26:40;;;;;;;3.50;1.88;;;4.60;19.30;;;;;;5056915;28;20201;-51
2022/03/11 02:29:06;;;;;;;3.58;1.92;;;4.60;19.20;;;;;;5057439;28;20169;-50
2022/03/11 02:31:32;;;;;;;8.03;2.63;;;4.60;19.20;;;;;;5057160;28;20252;-51
2022/03/11 02:34:00;;;;;;;3.67;2.58;;;4.60;19.00;;;;;;5057075;28;20733;-50
2022/03/11 02:36:26;;;;;;;4.45;2.20;;;4.60;19.00;;;;;;5056919;28;20663;-51
2022/03/11 02:38:52;;;;;;;4.75;2.80;;;4.50;19.30;;;;;;5057005;28;20174;-50
2022/03/11 02:41:18;;;;;;;2.75;2.22;;;4.50;19.10;;;;;;5057114;28;20166;-50
2022/03/11 02:43:44;;;;;;;2.73;2.10;;;4.50;19.10;;;;;;5056620;28;20684;-51
2022/03/11 02:46:11;;;;;;;7.47;2.40;;;4.40;19.30;;;;;;5055304;28;20166;-51
2022/03/11 02:48:37;;;;;;;4.78;3.22;;;4.40;19.30;;;;;;5056796;28;20629;-51
2022/03/11 02:51:04;;;;;;;4.43;2.45;;;4.30;19.20;;;;;;5057035;28;20184;-51
2022/03/11 02:53:30;;;;;;;2.08;1.40;;;4.30;19.40;;;;;;5055107;28;20173;-51
2022/03/11 02:55:55;;;;;;;4.37;1.77;;;4.30;19.30;;;;;;5056555;28;20195;-51
2022/03/11 02:58:21;;;;;;;6.50;2.90;;;4.20;19.40;;;;;;5056589;28;20200;-51
2022/03/11 03:00:47;;;;;;;2.90;2.43;;;4.30;19.30;;;;;;5056583;28;20639;-51
2022/03/11 03:03:13;;;;;;;3.40;2.77;;;4.30;19.30;;;;;;5056556;28;20168;-51
2022/03/11 03:05:38;;;;;;;4.30;1.90;;;4.30;19.30;;;;;;5054972;28;20464;-51
2022/03/11 03:08:04;;;;;;;5.20;2.27;;;4.30;19.10;;;;;;5056421;28;20672;-50
2022/03/11 03:10:30;;;;;;;4.20;2.90;;;4.20;19.10;;;;;;5056106;28;20434;-51
2022/03/11 03:12:56;;;;;;;3.43;2.50;;;4.30;19.30;;;;;;5056028;28;20823;-51
2022/03/11 03:15:22;;;;;;;4.60;3.50;;;4.20;19.10;;;;;;5055869;28;20548;-51
2022/03/11 03:17:47;;;;;;;3.10;2.57;;;4.20;18.90;;;;;;5055972;28;20430;-51
2022/03/11 03:20:14;;;;;;;6.40;2.30;;;4.20;18.90;;;;;;5054630;28;20574;-51
2022/03/11 03:22:40;;;;;;;2.08;1.77;;;4.20;18.80;;;;;;5056162;28;20169;-51
2022/03/11 03:25:08;;;;;;;4.60;2.57;;;4.10;19.40;;;;;;5088208;28;20188;-51
2022/03/11 03:27:34;;;;;;;4.43;3.50;;;4.20;18.90;;;;;;5056030;28;20749;-50
2022/03/11 03:29:59;;;;;;;4.93;2.03;;;4.20;18.80;;;;;;5056024;28;20234;-51
2022/03/11 03:32:25;;;;;;;3.50;2.03;;;4.20;18.70;;;;;;5053378;28;20172;-50
2022/03/11 03:34:50;;;;;;;5.30;3.80;;;4.10;18.70;;;;;;5054304;28;20243;-51
2022/03/11 03:37:16;;;;;;;5.10;2.70;;;4.10;18.80;;;;;;5055802;28;20173;-51
2022/03/11 03:39:42;;;;;;;3.47;2.40;;;4.20;18.50;;;;;;5055600;28;20174;-51
2022/03/11 03:42:09;;;;;;;2.13;1.70;;;4.20;18.40;;;;;;5055502;28;20495;-51
2022/03/11 03:44:34;;;;;;;6.95;3.47;;;4.20;18.50;;;;;;5055428;28;20254;-51
2022/03/11 03:47:00;;;;;;;4.20;2.03;;;4.80;18.70;;;;;;5055968;28;20601;-50
2022/03/11 03:49:28;;;;;;;6.80;2.97;;;4.10;18.50;;;;;;5055396;28;20168;-51
2022/03/11 03:51:53;;;;;;;6.15;2.97;;;4.00;18.20;;;;;;5055565;28;20423;-50
2022/03/11 03:54:19;;;;;;;2.47;2.20;;;4.00;18.50;;;;;;5055503;28;20169;-51
2022/03/11 03:56:45;;;;;;;8.17;3.50;;;4.10;18.50;;;;;;5053955;28;20188;-51
2022/03/11 03:59:13;;;;;;;1.85;1.67;;;4.10;18.80;;;;;;5055503;28;20205;-51
2022/03/11 04:01:43;;;;;;;3.38;2.30;;;4.00;18.40;;;;;;5055440;28;20177;-51
2022/03/11 04:04:09;;;;;;;3.75;2.58;;;3.90;18.40;;;;;;5055450;28;20179;-51
2022/03/11 04:06:37;;;;;;;4.00;2.20;;;3.90;18.60;;;;;;5053716;28;20206;-51
2022/03/11 04:09:05;;;;;;;5.30;3.38;;;3.80;18.40;;;;;;5055205;28;20256;-51
2022/03/11 04:11:31;;;;;;;8.35;2.67;;;3.80;18.60;;;;;;5054922;28;20169;-51
2022/03/11 04:13:58;;;;;;;4.38;1.98;;;3.80;18.40;;;;;;5054752;28;20223;-51
2022/03/11 04:16:24;;;;;;;2.55;2.00;;;3.80;18.50;;;;;;5053475;28;20201;-50
2022/03/11 04:18:50;;;;;;;3.38;2.45;;;3.80;18.50;;;;;;5055024;28;20161;-51
2022/03/11 04:21:17;;;;;;;7.07;3.08;;;3.70;18.50;;;;;;5054615;28;20567;-50
2022/03/11 04:23:44;;;;;;;2.17;1.67;;;3.80;18.20;;;;;;5055022;28;20219;-50
2022/03/11 04:26:11;;;;;;;2.47;1.98;;;3.80;18.40;;;;;;5053401;28;20198;-50
2022/03/11 04:28:37;;;;;;;3.20;1.88;;;3.90;18.30;;;;;;5053303;28;20161;-51
2022/03/11 04:31:08;;;;;;;3.53;2.38;;;3.80;18.80;;;;;;5054826;28;20175;-51
2022/03/11 04:33:34;;;;;;;4.53;3.38;;;3.80;18.20;;;;;;5054831;28;20176;-50
2022/03/11 04:36:00;;;;;;;6.85;2.67;;;3.80;18.30;;;;;;5054683;28;20672;-51
2022/03/11 04:38:26;;;;;;;3.80;2.60;;;3.80;18.20;;;;;;5053103;28;20171;-50
2022/03/11 04:40:52;;;;;;;3.10;1.30;;;3.80;18.10;;;;;;5054370;28;20248;-50
2022/03/11 04:43:19;;;;;;;3.65;2.20;;;3.70;18.10;;;;;;5086483;28;20415;-51
2022/03/11 04:45:44;;;;;;;3.70;2.67;;;3.70;18.40;;;;;;5054535;28;20170;-51
2022/03/11 04:48:10;;;;;;;3.73;2.70;;;3.70;18.00;;;;;;5052936;28;20196;-50
2022/03/11 04:50:36;;;;;;;3.83;2.47;;;3.70;18.40;;;;;;5052920;28;20165;-50
2022/03/11 04:53:03;;;;;;;1.90;1.50;;;3.70;18.40;;;;;;5054185;28;20991;-51
2022/03/11 04:55:29;;;;;;;3.22;1.67;;;3.70;18.10;;;;;;5054351;28;20227;-50
2022/03/11 04:57:54;;;;;;;5.13;1.97;;;3.80;18.30;;;;;;5054372;28;20617;-50
2022/03/11 05:00:20;;;;;;;4.30;3.23;;;3.70;18.10;;;;;;5054014;28;20920;-50
2022/03/11 05:02:46;;;;;;;6.30;3.30;;;3.60;18.20;;;;;;5053929;28;20173;-50
2022/03/11 05:05:13;;;;;;;3.40;3.10;;;3.60;18.30;;;;;;5053878;28;20408;-50
2022/03/11 05:07:39;;;;;;;3.35;3.05;;;3.60;18.30;;;;;;5054221;28;20506;-50
2022/03/11 05:10:11;;;;;;;3.55;2.30;;;3.50;18.40;;;;;;5052525;28;20672;-50
2022/03/11 05:12:37;;;;;;;4.50;2.25;;;3.50;18.40;;;;;;5054386;28;20216;-51
2022/03/11 05:15:04;;;;;;;5.55;2.53;;;3.50;18.50;;;;;;5054263;28;20514;-50
2022/03/11 05:17:31;;;;;;;6.10;3.10;;;3.60;18.50;;;;;;5054203;28;20171;-50
2022/03/11 05:19:56;;;;;;;3.90;2.38;;;3.50;18.60;;;;;;5052380;28;20188;-50
2022/03/11 05:22:22;;;;;;;3.83;2.03;;;3.60;18.50;;;;;;5085969;28;20177;-50
2022/03/11 05:24:48;;;;;;;5.50;2.87;;;3.50;18.70;;;;;;5053600;28;20416;-50
2022/03/11 05:27:14;;;;;;;6.17;2.80;;;3.60;18.50;;;;;;5053493;28;20419;-50
2022/03/11 05:29:40;;;;;;;4.30;2.00;;;3.50;18.60;;;;;;5053460;28;20165;-50
2022/03/11 05:32:07;;;;;;;2.23;1.93;;;3.50;18.60;;;;;;5053751;28;20911;-50
2022/03/11 05:34:34;;;;;;;1.48;1.02;;;3.50;18.80;;;;;;5052063;28;20466;-50
2022/03/11 05:37:00;;;;;;;2.38;2.17;;;3.50;18.70;;;;;;5053683;28;20179;-50
2022/03/11 05:39:26;;;;;;;3.20;1.90;;;3.50;18.90;;;;;;5085687;28;20169;-50
2022/03/11 05:41:52;;;;;;;6.63;2.33;;;3.40;18.80;;;;;;5053279;28;20465;-50
2022/03/11 05:44:18;;;;;;;3.87;2.67;;;3.40;19.10;;;;;;5085613;28;20182;-50
2022/03/11 05:46:45;;;;;;;2.92;2.33;;;4.20;19.40;;;;;;5053510;28;20407;-50
2022/03/11 05:49:12;;;;;;;3.42;1.55;;;3.40;19.10;;;;;;5053251;28;20637;-50
2022/03/11 05:51:38;;;;;;;4.25;1.70;;;3.40;19.10;;;;;;5053510;28;20165;-50
2022/03/11 05:54:05;;;;;;;2.33;1.58;;;3.50;19.50;;;;;;5053690;28;20726;-50
2022/03/11 05:56:31;;;;;;;5.78;3.58;;;3.40;19.30;;;;;;5057352;28;20288;-50
2022/03/11 05:58:56;;;;;;;4.17;2.97;;;3.40;19.50;;;;;;5057754;28;20248;-50
2022/03/11 06:01:22;;;;;;;7.60;1.23;;;3.50;19.60;;;;;;5057570;28;20573;-50
2022/03/11 06:03:48;;;;;;;5.10;2.40;;;3.50;19.50;;;;;;5057513;28;20169;-50
2022/03/11 06:06:15;;;;;;;11.13;2.55;;;3.60;19.50;;;;;;5057587;28;20408;-50
2022/03/11 06:08:42;;;;;;;4.65;2.40;;;4.50;19.90;;;;;;5057132;28;20255;-50
2022/03/11 06:11:08;;;;;;;3.10;2.08;;;3.60;19.50;;;;;;5055885;28;20319;-50
2022/03/11 06:13:35;;;;;;;4.18;2.88;;;3.70;19.50;;;;;;5056934;28;20350;-50
2022/03/11 06:16:00;;;;;;;3.25;2.95;;;3.70;19.40;;;;;;5057548;28;20641;-50
2022/03/11 06:18:26;;;;;;;2.63;1.77;;;4.10;19.50;;;;;;5089340;28;20176;-50
2022/03/11 06:20:52;;;;;;;2.90;2.40;;;3.70;19.40;;;;;;5056869;28;20182;-50
2022/03/11 06:23:18;;;;;;;7.90;2.80;;;3.80;19.50;;;;;;5057138;28;20231;-50
2022/03/11 06:25:43;;;;;;;2.70;2.10;;;4.00;19.40;;;;;;5057091;28;20248;-50
2022/03/11 06:28:09;;;;;;;6.43;3.03;;;4.20;19.10;;;;;;5057143;28;20209;-50
2022/03/11 06:30:35;;;;;;;6.87;2.60;;;4.30;19.00;;;;;;5055461;28;20169;-50
2022/03/11 06:33:00;;;;;;;1.90;1.07;;;4.30;18.80;;;;;;5055440;28;20571;-50
2022/03/11 06:35:26;;;;;;;9.03;2.33;;;4.30;18.90;;;;;;5056892;28;20231;-50
2022/03/11 06:37:53;;;;;;;2.00;1.63;;;4.20;19.20;;;;;;5056636;28;20495;-50
2022/03/11 06:40:20;;;;;;;3.88;3.05;;;4.20;19.00;;;;;;5056527;28;20939;-50
2022/03/11 06:42:47;;;;;;;4.10;2.53;;;4.30;19.20;;;;;;5056581;28;20165;-50
2022/03/11 06:45:15;;;;;;;10.07;3.75;;;4.40;19.20;;;;;;5088838;28;20165;-51
2022/03/11 06:47:41;;;;;;;2.70;2.20;;;4.40;19.00;;;;;;5057003;28;20176;-50
2022/03/11 06:50:08;;;;;;;5.03;3.00;;;4.40;18.70;;;;;;5055072;28;20522;-51
2022/03/11 06:52:34;;;;;;;2.97;1.55;;;4.40;19.00;;;;;;5056288;28;20177;-50
2022/03/11 06:55:00;;;;;;;3.45;2.08;;;5.40;19.40;;;;;;5054943;28;20185;-51
2022/03/11 06:57:26;;;;;;;2.23;1.77;;;4.50;19.20;;;;;;5055049;28;20634;-50
2022/03/11 06:59:51;;;;;;;3.53;2.60;;;4.50;19.20;;;;;;5056540;28;20514;-50
2022/03/11 07:02:18;;;;;;;4.00;2.07;;;4.70;19.10;;;;;;5056541;28;20255;-51
2022/03/11 07:04:44;;;;;;;3.65;2.60;;;4.70;18.90;;;;;;5056123;28;20616;-51
2022/03/11 07:07:10;;;;;;;10.15;3.30;;;4.80;18.80;;;;;;5056282;28;20248;-51
2022/03/11 07:09:35;;;;;;;5.40;2.70;;;4.90;19.20;;;;;;5054808;28;20653;-51
2022/03/11 07:12:03;;;;;;;4.10;2.53;;;5.00;18.50;;;;;;5056310;28;20487;-51
2022/03/11 07:14:36;;;;;;;5.13;1.90;;;5.10;18.90;;;;;;5055760;28;20542;-51
2022/03/11 07:17:06;;;;;;;8.93;1.98;;;5.20;18.50;;;;;;5056256;28;20164;-51
2022/03/11 07:19:32;;;;;;;1.85;1.50;;;5.40;18.60;;;;;;5055902;28;20173;-51
2022/03/11 07:22:01;;;;;;;5.35;2.38;;;5.40;18.40;;;;;;5056064;28;20173;-51
2022/03/11 07:24:26;;;;;;;7.43;2.38;;;5.50;18.50;;;;;;5055864;28;20172;-51
2022/03/11 07:26:53;;;;;;;3.42;2.08;;;5.60;18.20;;;;;;5055204;28;20573;-51
2022/03/11 07:29:18;;;;;;;5.60;2.75;;;5.70;18.20;;;;;;5054441;28;20184;-51
2022/03/11 07:31:45;;;;;;;4.17;2.10;;;5.90;18.40;;;;;;5055639;28;20173;-51
2022/03/11 07:34:11;;;;;;;3.80;2.00;;;6.00;17.70;;;;;;5055525;28;20819;-51
2022/03/11 07:36:38;;;;;;;4.22;2.47;;;6.00;18.00;;;;;;5055728;28;20276;-51
2022/03/11 07:39:05;;;;;;;4.50;2.42;;;6.10;17.90;;;;;;5055526;28;20170;-51
2022/03/11 07:41:31;;;;;;;2.10;1.67;;;6.20;17.90;;;;;;5054207;28;20174;-51
2022/03/11 07:43:57;;;;;;;4.45;2.40;;;6.20;17.70;;;;;;5054118;28;20256;-51
2022/03/11 07:46:23;;;;;;;5.37;2.60;;;6.30;18.20;;;;;;5055864;28;20262;-51
2022/03/11 07:48:52;;;;;;;2.10;1.67;;;6.50;17.80;;;;;;5054475;28;20180;-51
2022/03/11 07:51:18;;;;;;;5.68;3.47;;;6.60;18.00;;;;;;5087666;28;20419;-51
2022/03/11 07:53:45;;;;;;;3.47;2.47;;;6.70;17.50;;;;;;5054026;28;20181;-51
2022/03/11 07:56:12;;;;;;;3.63;2.50;;;6.80;17.50;;;;;;5055406;28;20197;-51
2022/03/11 07:58:42;;;;;;;4.78;2.42;;;6.90;17.70;;;;;;5055466;28;20303;-51
2022/03/11 08:01:12;;;;;;;3.88;2.63;;;7.00;17.50;;;;;;5055189;28;20177;-51
2022/03/11 08:03:39;;;;;;;3.67;1.90;;;7.00;17.00;;;;;;5055297;28;20252;-51
2022/03/11 08:06:08;;;;;;;3.30;2.25;;;7.10;17.40;;;;;;5053902;28;20172;-51
2022/03/11 08:08:37;;;;;;;3.88;2.42;;;7.20;17.00;;;;;;5055487;28;20173;-51
2022/03/11 08:11:07;;;;;;;3.55;2.65;;;7.20;17.00;;;;;;5054928;28;20165;-51
2022/03/11 08:13:34;;;;;;;5.72;2.10;;;7.30;16.90;;;;;;5054723;28;20221;-52
2022/03/11 08:16:00;;;;;;;3.80;1.80;;;7.40;17.20;;;;;;5055017;28;20201;-51
2022/03/11 08:18:26;;;;;;;5.50;3.38;;;7.50;16.80;;;;;;5054698;28;20173;-51
2022/03/11 08:20:52;;;;;;;3.05;2.17;;;7.40;16.60;;;;;;5053361;28;20540;-51
2022/03/11 08:23:18;;;;;;;2.67;1.90;;;7.40;16.60;;;;;;5054727;28;20170;-51
2022/03/11 08:25:45;;;;;;;3.95;2.30;;;7.50;16.80;;;;;;5054579;28;20408;-51
2022/03/11 08:28:13;;;;;;;6.43;3.15;;;7.50;16.70;;;;;;5053555;28;20547;-51
2022/03/11 08:30:42;;;;;;;4.05;2.80;;;7.60;16.70;;;;;;5055028;28;20166;-51
2022/03/11 08:33:10;;;;;;;4.18;3.13;;;7.70;17.10;;;;;;5054450;28;20189;-51
2022/03/11 08:35:36;;;;;;;4.88;2.30;;;7.90;16.70;;;;;;5054410;28;20205;-51
2022/03/11 08:38:05;;;;;;;3.80;1.93;;;8.00;16.80;;;;;;5053114;28;20657;-51
2022/03/11 08:40:35;;;;;;;10.25;2.55;;;8.20;16.90;;;;;;5054642;28;20412;-51
2022/03/11 08:43:03;;;;;;;2.28;1.63;;;8.20;16.10;;;;;;5054579;28;20174;-51
2022/03/11 08:45:28;;;;;;;3.65;2.65;;;8.20;16.20;;;;;;5054342;28;20173;-51
2022/03/11 08:47:54;;;;;;;4.43;2.43;;;8.30;15.90;;;;;;5086626;28;20175;-51
2022/03/11 08:50:20;;;;;;;5.10;3.03;;;8.40;16.60;;;;;;5036355;28;20167;-51
2022/03/11 08:52:47;;;;;;;4.95;2.47;;;8.50;16.50;;;;;;5054429;28;20165;-51
2022/03/11 08:55:14;;;;;;;6.03;2.78;;;8.60;16.00;;;;;;5054252;28;20206;-51
2022/03/11 08:57:41;;;;;;;4.05;2.10;;;8.80;15.80;;;;;;5054579;28;20170;-51
2022/03/11 09:00:12;;;;;;;4.40;2.83;;;8.90;15.60;;;;;;5054254;28;20167;-51
2022/03/11 09:02:38;;;;;;;9.35;3.10;;;8.90;15.10;;;;;;5054199;28;20151;-51
2022/03/11 09:05:08;;;;;;;6.65;2.38;;;9.00;15.70;;;;;;5086268;28;20193;-51
2022/03/11 09:07:33;;;;;;;12.18;3.25;;;9.10;15.50;;;;;;5053879;28;20588;-51
2022/03/11 09:10:05;;;;;;;5.83;3.40;;;9.00;15.60;;;;;;5053823;28;20254;-52
2022/03/11 09:12:30;;;;;;;2.47;1.60;;;9.00;15.20;;;;;;5053869;28;20155;-52
2022/03/11 09:14:56;;;;;;;4.50;2.53;;;9.00;14.70;;;;;;5053743;28;20522;-52
2022/03/11 09:17:22;;;;;;;2.67;1.90;;;9.10;15.10;;;;;;5054000;28;20984;-51
2022/03/11 09:19:48;;;;;;;6.23;3.23;;;9.20;15.10;;;;;;5053934;28;20754;-51
2022/03/11 09:22:14;;;;;;;5.05;2.60;;;9.30;14.90;;;;;;5054107;28;20174;-52
2022/03/11 09:24:41;;;;;;;4.38;2.88;;;9.30;14.30;;;;;;5052182;28;20186;-51
2022/03/11 09:27:09;;;;;;;5.25;2.60;;;9.40;14.70;;;;;;5053795;28;20164;-52
2022/03/11 09:29:35;;;;;;;5.40;2.88;;;9.60;14.30;;;;;;5052425;28;20176;-52
2022/03/11 09:32:01;;;;;;;5.73;2.50;;;9.60;14.30;;;;;;5053592;28;20524;-51
2022/03/11 09:34:27;;;;;;;3.42;2.60;;;9.70;14.10;;;;;;5053282;28;20407;-51
2022/03/11 09:36:53;;;;;;;4.33;3.20;;;9.70;13.70;;;;;;5053707;28;20233;-51
2022/03/11 09:39:23;;;;;;;7.22;2.47;;;9.70;13.90;;;;;;5053661;28;20225;-51
2022/03/11 09:41:49;;;;;;;4.88;3.58;;;9.90;14.20;;;;;;5053335;28;20176;-51
2022/03/11 09:44:16;;;;;;;4.90;2.40;;;10.00;13.70;;;;;;5053576;28;20177;-52
2022/03/11 09:46:44;;;;;;;4.30;1.98;;;9.90;14.10;;;;;;5053342;28;20161;-52
2022/03/11 09:49:14;;;;;;;4.70;2.28;;;9.80;13.20;;;;;;5053537;28;20679;-51
2022/03/11 09:51:41;;;;;;;4.50;2.70;;;9.80;13.30;;;;;;5053292;28;20175;-51
2022/03/11 09:54:07;;;;;;;2.38;1.77;;;9.70;13.10;;;;;;5052120;28;20204;-51
2022/03/11 09:56:38;;;;;;;5.07;2.50;;;9.90;13.40;;;;;;5053076;28;20208;-51
2022/03/11 09:59:05;;;;;;;3.42;1.90;;;10.00;12.80;;;;;;5053513;28;20181;-51
2022/03/11 10:01:30;;;;;;;3.53;2.55;;;10.20;13.20;;;;;;5053468;28;20174;-51
2022/03/11 10:03:56;;;;;;;3.93;2.23;;;10.30;12.90;;;;;;5053499;28;20164;-51
2022/03/11 10:06:38;;;;;;;4.53;2.17;;;10.40;13.30;;;;;;5053185;28;20214;-51
2022/03/11 10:09:04;;;;;;;4.18;2.30;;;10.70;13.10;;;;;;5053208;28;20738;-51
2022/03/11 10:11:30;;;;;;;5.37;3.30;;;10.80;12.20;;;;;;5053151;28;20203;-51
2022/03/11 10:14:07;;;;;;;6.20;3.20;;;10.90;12.30;;;;;;5052946;28;20462;-51
2022/03/11 10:16:34;;;;;;;2.55;1.95;;;11.10;12.30;;;;;;5085359;28;20192;-51
2022/03/11 10:19:02;;;;;;;5.90;2.40;;;10.90;11.60;;;;;;5053032;28;20185;-51
2022/03/11 10:21:45;;;;;;;3.85;2.55;;;10.80;11.60;;;;;;5052956;28;20258;-51
2022/03/11 10:24:16;;;;;;;10.25;3.47;;;10.80;12.30;;;;;;5053134;28;20168;-51
2022/03/11 10:26:48;;;;;;;3.60;2.50;;;11.00;12.30;;;;;;5053285;28;20613;-51
2022/03/11 10:29:16;;;;;;;7.05;2.45;;;11.30;12.30;;;;;;5085267;28;20663;-51
2022/03/11 10:31:45;;;;;;;5.55;2.50;;;11.40;11.40;;;;;;5053042;28;20176;-51
2022/03/11 10:34:29;;;;;;;3.97;2.42;;;11.40;12.20;;;;;;5052847;28;20294;-51
2022/03/11 10:37:03;;;;;;;6.78;3.05;;;11.60;12.30;;;;;;5052881;28;20629;-51
2022/03/11 10:39:36;;;;;;;7.32;2.45;;;11.90;12.30;;;;;;5053371;28;20173;-51
2022/03/11 10:42:20;;;;;;;3.22;1.85;;;12.10;12.30;;;;;;5056045;28;20602;-51
2022/03/11 10:44:56;;;;;;;7.30;3.58;;;12.20;10.80;;;;;;5057177;28;20247;-51
2022/03/11 10:47:27;;;;;;;4.00;2.47;;;12.30;10.40;;;;;;5056485;28;20180;-51
2022/03/11 10:49:56;;;;;;;5.65;3.63;;;12.20;10.70;;;;;;5055572;28;20169;-51
2022/03/11 10:52:33;;;;;;;4.13;2.85;;;12.00;11.30;;;;;;5056727;28;20280;-51
2022/03/11 10:55:00;;;;;;;6.82;3.40;;;12.10;11.80;;;;;;5055000;28;20193;-51
2022/03/11 10:57:38;;;;;;;3.78;2.17;;;12.30;10.90;;;;;;5056445;28;20530;-51
2022/03/11 11:00:20;;;;;;;5.07;2.70;;;12.40;10.70;;;;;;5054998;28;20168;-51
2022/03/11 11:02:48;;;;;;;6.80;4.07;;;12.40;10.90;;;;;;5056094;28;20633;-51
2022/03/11 11:05:15;;;;;;;5.45;2.70;;;12.50;11.30;;;;;;5056430;28;20168;-51
2022/03/11 11:07:41;;;;;;;4.78;3.03;;;12.80;11.60;;;;;;5056365;28;20201;-51
2022/03/11 11:10:09;;;;;;;4.65;2.70;;;12.90;10.60;;;;;;5088300;28;20169;-51
2022/03/11 11:12:35;;;;;;;6.15;3.65;;;13.00;10.80;;;;;;5055991;28;20650;-52
2022/03/11 11:15:03;;;;;;;6.30;3.55;;;13.00;11.10;;;;;;5056461;28;20659;-51
2022/03/11 11:17:30;;;;;;;5.53;3.30;;;13.10;11.80;;;;;;5055863;28;20177;-52
2022/03/11 11:19:58;;;;;;;4.68;3.00;;;13.30;11.30;;;;;;5056141;28;20260;-51
2022/03/11 11:22:27;;;;;;;6.30;3.22;;;13.30;10.70;;;;;;5055987;28;20162;-51
2022/03/11 11:24:55;;;;;;;9.25;3.75;;;13.30;10.50;;;;;;5055770;28;20646;-51
2022/03/11 11:27:21;;;;;;;5.88;3.08;;;13.40;11.00;;;;;;5056020;28;20169;-51
2022/03/11 11:29:50;;;;;;;4.80;3.13;;;13.50;10.60;;;;;;5055679;28;20166;-51
2022/03/11 11:32:17;;;;;;;6.07;3.65;;;13.40;10.70;;;;;;5056229;28;20169;-52
2022/03/11 11:34:43;;;;;;;4.63;2.95;;;13.60;11.00;;;;;;5055493;28;20211;-51
2022/03/11 11:37:37;;;;;;;3.33;3.00;;;13.90;11.40;;;;;;5054280;28;20184;-52
2022/03/11 11:40:18;;;;;;;4.50;3.08;;;14.10;10.40;;;;;;5055509;28;20634;-51
2022/03/11 11:43:28;;;;;;;3.72;2.25;;;14.40;10.70;;;;;;5054162;28;20178;-51
2022/03/11 11:45:58;;;;;;;5.07;3.13;;;14.30;10.30;;;;;;5055953;28;20241;-51
2022/03/11 11:48:49;;;;;;;19.23;3.40;;;14.30;10.00;;;;;;5055266;28;20173;-51
2022/03/11 11:51:19;;;;;;;3.70;2.20;;;14.50;10.20;;;;;;5055236;28;20177;-51
2022/03/11 11:53:56;;;;;;;5.95;3.22;;;14.60;10.70;;;;;;5054438;28;20170;-51
2022/03/11 11:56:32;;;;;;;4.85;3.05;;;14.60;11.20;;;;;;5053933;28;20192;-51
2022/03/11 11:59:03;;;;;;;5.75;3.50;;;14.80;9.70;;;;;;5055428;28;20261;-51
2022/03/11 12:01:45;;;;;;;6.85;3.70;;;14.60;10.50;;;;;;5055290;28;20175;-51
2022/03/11 12:04:27;;;;;;;7.78;2.65;;;14.50;9.30;;;;;;5055296;28;20173;-51
2022/03/11 12:06:56;;;;;;;7.55;2.78;;;14.40;10.40;;;;;;5054970;28;20207;-51
2022/03/11 12:09:58;;;;;;;5.55;3.53;;;14.40;10.40;;;;;;5055286;28;20645;-51
2022/03/11 12:12:24;;;;;;;5.85;3.70;;;14.70;10.60;;;;;;5054725;28;20505;-52
2022/03/11 12:15:05;;;;;;;7.55;3.10;;;14.80;10.80;;;;;;5055108;28;20203;-51
2022/03/11 12:17:42;;;;;;;5.13;2.63;;;14.90;10.70;;;;;;5055421;28;20157;-51
2022/03/11 12:20:36;;;;;;;6.45;2.75;;;14.80;9.50;;;;;;5054993;28;20224;-51
2022/03/11 12:23:06;;;;;;;5.05;3.08;;;14.80;9.80;;;;;;5054911;28;20153;-51
2022/03/11 12:25:57;;;;;;;4.05;2.58;;;14.70;10.10;;;;;;5053723;28;20180;-51
2022/03/11 12:28:38;;;;;;;4.53;3.00;;;14.80;10.80;;;;;;5055667;28;20535;-51
2022/03/11 12:31:13;;;;;;;5.32;3.80;;;14.90;10.00;;;;;;5054731;28;20197;-51
2022/03/11 12:33:40;;;;;;;4.50;3.10;;;14.80;11.40;;;;;;5055008;28;20234;-51
2022/03/11 12:36:09;;;;;;;5.18;3.40;;;14.80;10.50;;;;;;5054383;28;20277;-51
2022/03/11 12:38:38;;;;;;;5.72;3.60;;;15.00;10.40;;;;;;5054407;28;20207;-51
2022/03/11 12:41:13;;;;;;;6.20;3.40;;;15.00;10.20;;;;;;5054343;28;20169;-51
2022/03/11 12:43:40;;;;;;;4.60;2.67;;;14.90;10.20;;;;;;5054626;28;20240;-51
2022/03/11 12:46:08;;;;;;;5.30;3.28;;;14.90;9.90;;;;;;5054479;28;20236;-51
2022/03/11 12:48:38;;;;;;;6.78;3.58;;;14.70;10.60;;;;;;5054140;28;20184;-51
2022/03/11 12:51:06;;;;;;;5.03;4.25;;;14.80;10.40;;;;;;5054632;28;20161;-51
2022/03/11 12:53:32;;;;;;;5.03;4.22;;;15.00;10.40;;;;;;5054423;28;20667;-51
2022/03/11 12:55:58;;;;;;;7.43;2.80;;;15.00;9.80;;;;;;5054013;28;20193;-51
2022/03/11 12:58:25;;;;;;;9.15;4.05;;;15.00;9.70;;;;;;5052812;28;20188;-51